Sunday, May 27, 2018, 11:36 AM EDT
Back to Local

KDSV, Dansville Municipal Airport

Location: Dansville, NY, United States Lat: 42.567
Local Time: 11:36 AM EDT (15:36 GMT) Lon: -77.717
Time Zone: US/Eastern Elev: 662 ft

Show me the last for .
Show Decoded

2018-05-27 10:54 METAR KDSV 271454Z AUTO 19004KT 10SM OVC042 22/17 A2997 RMK AO2 SLP155 T02170167
                 51008 =
2018-05-27 09:54 METAR KDSV 271354Z AUTO 17005KT 10SM BKN070 BKN120 21/17 A2997 RMK AO2 SLP154
                 T02060167 =
2018-05-27 08:54 METAR KDSV 271254Z AUTO 13007KT 10SM FEW080 OVC120 20/17 A2996 RMK AO2 SLP151
                 T02000167 =
2018-05-27 07:54 METAR KDSV 271154Z AUTO 12006KT 10SM BKN070 OVC120 19/17 A2995 RMK AO2 SLP147
                 60002 70002 T01940167 10194 20183 53013 =
2018-05-27 06:54 METAR KDSV 271054Z AUTO 14005KT 10SM BKN120 19/16 A2994 RMK AO2 RAB06E16 SLP143
                 P0000 T01890161 =
2018-05-27 05:54 METAR KDSV 270954Z AUTO 15006KT 10SM OVC080 18/17 A2992 RMK AO2 RAE09 SLP136
                 P0001 T01830167 =
2018-05-27 04:54 METAR KDSV 270854Z AUTO 14007KT 10SM -RA OVC085 19/16 A2991 RMK AO2 SLP133 P0001
                 60001 T01890161 50006 =
2018-05-27 03:54 METAR KDSV 270754Z AUTO 00000KT 10SM -RA FEW065 SCT085 OVC110 19/17 A2991 RMK
                 AO2 RAB39 SLP133 P0000 T01940167 =
2018-05-27 02:54 METAR KDSV 270654Z AUTO 14006KT 10SM OVC100 19/16 A2990 RMK AO2 SLP128 T01940161
                 =
2018-05-27 01:54 METAR KDSV 270554Z AUTO 16006KT 10SM OVC110 19/16 A2990 RMK AO2 SLP127 T01940156
                 10244 20189 50000 =
2018-05-27 00:54 METAR KDSV 270454Z AUTO 19003KT 10SM OVC100 20/16 A2990 RMK AO2 SLP130 T02000156
                 402890133 =
2018-05-26 23:54 METAR KDSV 270354Z AUTO 00000KT 10SM BKN110 21/16 A2989 RMK AO2 SLP127 T02060156
                 =
2018-05-26 22:54 METAR KDSV 270254Z AUTO 30003KT 10SM OVC110 21/16 A2989 RMK AO2 SLP127 T02060161
                 53015 =
2018-05-26 21:54 METAR KDSV 270154Z AUTO 15005KT 10SM SCT120 22/16 A2988 RMK AO2 SLP122 T02170161
                 =
2018-05-26 20:54 METAR KDSV 270054Z AUTO 00000KT 10SM OVC120 23/17 A2986 RMK AO2 SLP116 T02330167
                 =
2018-05-26 19:54 METAR KDSV 262354Z AUTO 17003KT 10SM OVC120 24/18 A2985 RMK AO2 SLP112 T02440178
                 10289 20244 53013 =
2018-05-26 18:54 METAR KDSV 262254Z AUTO 00000KT 10SM OVC120 27/16 A2982 RMK AO2 SLP104 T02670161
                 =
2018-05-26 17:54 METAR KDSV 262154Z AUTO 00000KT 10SM OVC120 28/13 A2981 RMK AO2 SLP099 T02830128
                 =
2018-05-26 16:54 METAR KDSV 262054Z AUTO 00000KT 10SM FEW049 BKN120 28/13 A2981 RMK AO2 SLP098
                 T02830128 58008 =
2018-05-26 15:54 METAR KDSV 261954Z AUTO 30005KT 10SM CLR 29/12 A2982 RMK AO2 SLP104 T02890117 =
2018-05-26 14:54 METAR KDSV 261854Z AUTO 35007KT 10SM CLR 28/14 A2983 RMK AO2 SLP106 T02780139 =
2018-05-26 13:54 METAR KDSV 261754Z AUTO 36007KT 10SM CLR 28/14 A2983 RMK AO2 SLP107 T02830144
                 10289 20161 58001 =
2018-05-26 12:54 METAR KDSV 261654Z AUTO 00000KT 10SM CLR 28/13 A2983 RMK AO2 SLP107 T02780128 =
2018-05-26 11:54 METAR KDSV 261554Z AUTO VRB03KT 10SM FEW075 26/14 A2984 RMK AO2 SLP110 T02610144
                 =

Support USWX by starting your Amazon purchase here.